createdAt,value
2023-05-02T00:00:50.729Z,101968.72
2023-05-02T00:03:17.660Z,101976.34
2023-05-02T00:05:44.800Z,101981.50
2023-05-02T00:08:12.223Z,101992.84
2023-05-02T00:10:38.768Z,101997.63
2023-05-02T00:13:05.575Z,101999.91
2023-05-02T00:15:32.293Z,102005.25
2023-05-02T00:17:59.212Z,101996.66
2023-05-02T00:20:26.074Z,102001.34
2023-05-02T00:22:52.569Z,102003.25
2023-05-02T00:25:19.128Z,102006.69
2023-05-02T00:27:46.809Z,102010.38
2023-05-02T00:30:14.230Z,102007.16
2023-05-02T00:32:40.951Z,102006.75
2023-05-02T00:35:08.324Z,102009.94
2023-05-02T00:37:36.007Z,102020.81
2023-05-02T00:40:03.514Z,102017.44
2023-05-02T00:42:31.639Z,102018.94
2023-05-02T00:44:58.427Z,102013.91
2023-05-02T00:47:25.131Z,102019.41
2023-05-02T00:49:51.768Z,102010.69
2023-05-02T00:52:18.570Z,102016.59
2023-05-02T00:54:45.950Z,102021.56
2023-05-02T00:57:12.508Z,102018.34
2023-05-02T00:59:39.433Z,102020.47
2023-05-02T01:02:21.522Z,102023.59
2023-05-02T01:05:12.570Z,102029.44
2023-05-02T01:08:14.965Z,102026.59
2023-05-02T01:11:15.040Z,102022.31
2023-05-02T01:13:43.211Z,102026.53
2023-05-02T01:16:12.003Z,102017.50
2023-05-02T01:18:41.790Z,102021.56
2023-05-02T01:21:09.752Z,102007.84
2023-05-02T01:24:06.767Z,102011.31
2023-05-02T01:26:45.762Z,102013.19
2023-05-02T01:29:15.535Z,102008.84
2023-05-02T01:31:44.248Z,102009.31
2023-05-02T01:34:11.812Z,102020.22
2023-05-02T01:36:43.761Z,102021.13
2023-05-02T01:39:13.395Z,102022.44
2023-05-02T01:41:42.810Z,102024.59
2023-05-02T01:44:10.920Z,102022.81
2023-05-02T01:46:40.452Z,102025.91
2023-05-02T01:49:09.177Z,102027.81
2023-05-02T01:51:40.817Z,102041.91
2023-05-02T01:54:10.273Z,102039.75
2023-05-02T01:56:39.322Z,102042.22
2023-05-02T01:59:09.750Z,102044.47
2023-05-02T02:01:38.792Z,102049.97
2023-05-02T02:04:09.176Z,102047.91
2023-05-02T02:06:36.269Z,102048.59
2023-05-02T02:09:03.731Z,102046.84
2023-05-02T02:12:03.589Z,102053.94
2023-05-02T02:14:36.587Z,102057.16
2023-05-02T02:17:11.125Z,102061.41
2023-05-02T02:19:39.904Z,102073.28
2023-05-02T02:22:08.871Z,102064.69
2023-05-02T02:24:37.619Z,102063.84
2023-05-02T02:27:04.189Z,102073.47
2023-05-02T02:29:30.993Z,102067.50
2023-05-02T02:31:57.510Z,102070.84
2023-05-02T02:34:24.050Z,102072.53
2023-05-02T02:36:53.346Z,102076.34
2023-05-02T02:39:49.843Z,102072.44
2023-05-02T02:42:23.173Z,102081.38
2023-05-02T02:44:58.718Z,102072.44
2023-05-02T02:48:02.548Z,102074.06
2023-05-02T02:50:38.497Z,102074.97
2023-05-02T02:53:20.666Z,102071.56
2023-05-02T02:56:22.159Z,102078.31
2023-05-02T02:59:16.182Z,102081.69
2023-05-02T03:01:49.368Z,102089.28
2023-05-02T03:04:17.534Z,102092.97
2023-05-02T03:06:44.502Z,102091.06
2023-05-02T03:09:20.110Z,102099.06
2023-05-02T03:11:48.791Z,102101.19
2023-05-02T03:14:15.818Z,102104.63
2023-05-02T03:16:42.531Z,102099.97
2023-05-02T03:19:13.140Z,102110.66
2023-05-02T03:21:39.699Z,102111.34
2023-05-02T03:24:12.573Z,102113.50
2023-05-02T03:26:39.133Z,102124.47
2023-05-02T03:29:08.995Z,102118.03
2023-05-02T03:31:39.359Z,102124.28
2023-05-02T03:34:06.168Z,102128.72
2023-05-02T03:36:33.464Z,102127.81
2023-05-02T03:39:00.031Z,102135.81
2023-05-02T03:41:26.743Z,102136.03
2023-05-02T03:44:00.810Z,102132.53
2023-05-02T03:46:28.359Z,102142.06
2023-05-02T03:48:57.794Z,102137.00
2023-05-02T03:51:24.351Z,102133.66
2023-05-02T03:53:54.739Z,102135.63
2023-05-02T03:56:21.389Z,102152.69
2023-05-02T03:58:58.002Z,102153.81
2023-05-02T04:01:26.183Z,102158.72
2023-05-02T04:03:54.161Z,102167.09
2023-05-02T04:06:23.379Z,102169.91
2023-05-02T04:08:59.271Z,102168.84
2023-05-02T04:11:29.767Z,102173.28
2023-05-02T04:13:56.385Z,102178.41
2023-05-02T04:16:23.685Z,102175.91
2023-05-02T04:18:50.237Z,102186.91
2023-05-02T04:21:17.305Z,102190.28
2023-05-02T04:23:45.283Z,102197.03
2023-05-02T04:26:11.908Z,102190.75
2023-05-02T04:28:54.945Z,102198.59
2023-05-02T04:31:21.591Z,102204.47
2023-05-02T04:33:48.971Z,102211.25
2023-05-02T04:36:22.060Z,102213.34
2023-05-02T04:38:48.588Z,102224.97
2023-05-02T04:41:17.336Z,102216.53
2023-05-02T04:43:49.946Z,102224.13
2023-05-02T04:46:18.668Z,102224.31
2023-05-02T04:48:46.296Z,102230.06
2023-05-02T04:51:14.811Z,102232.59
2023-05-02T04:53:43.707Z,102241.03
2023-05-02T04:56:11.280Z,102242.97
2023-05-02T04:58:38.346Z,102246.56
2023-05-02T05:01:07.857Z,102249.97
2023-05-02T05:03:34.735Z,102252.88
2023-05-02T05:06:02.454Z,102251.84
2023-05-02T05:08:29.658Z,102257.94
2023-05-02T05:10:57.355Z,102259.63
2023-05-02T05:13:24.751Z,102261.13
2023-05-02T05:15:52.281Z,102270.19
2023-05-02T05:18:23.288Z,102267.25
2023-05-02T05:20:49.829Z,102270.84
2023-05-02T05:23:16.391Z,102284.94
2023-05-02T05:25:45.760Z,102280.09
2023-05-02T05:28:14.371Z,102287.06
2023-05-02T05:30:41.024Z,102286.28
2023-05-02T05:33:11.036Z,102293.00
2023-05-02T05:35:38.129Z,102289.88
2023-05-02T05:38:04.911Z,102290.06
2023-05-02T05:40:34.620Z,102297.44
2023-05-02T05:43:01.295Z,102300.19
2023-05-02T05:45:32.188Z,102306.06
2023-05-02T05:47:58.771Z,102306.91
2023-05-02T05:50:27.784Z,102324.66
2023-05-02T05:52:54.441Z,102314.94
2023-05-02T05:55:21.749Z,102312.03
2023-05-02T05:57:48.842Z,102323.81
2023-05-02T06:00:15.825Z,102325.09
2023-05-02T06:02:42.574Z,102316.66
2023-05-02T06:05:15.784Z,102333.06
2023-05-02T06:07:42.920Z,102325.94
2023-05-02T06:10:10.923Z,102334.31
2023-05-02T06:12:39.275Z,102344.28
2023-05-02T06:15:07.388Z,102344.28
2023-05-02T06:17:34.372Z,102335.63
2023-05-02T06:20:01.198Z,102353.94
2023-05-02T06:22:28.041Z,102354.59
2023-05-02T06:24:54.624Z,102357.97
2023-05-02T06:27:21.154Z,102360.06
2023-05-02T06:29:50.445Z,102367.03
2023-05-02T06:32:16.947Z,102376.72
2023-05-02T06:34:43.487Z,102379.88
2023-05-02T06:37:10.048Z,102387.03
2023-05-02T06:39:36.880Z,102396.56
2023-05-02T06:42:03.515Z,102391.69
2023-05-02T06:44:32.271Z,102380.28
2023-05-02T06:46:58.899Z,102396.72
2023-05-02T06:49:26.559Z,102404.75
2023-05-02T06:51:53.065Z,102407.28
2023-05-02T06:54:19.661Z,102402.66
2023-05-02T06:56:46.150Z,102399.91
2023-05-02T06:59:12.641Z,102418.25
2023-05-02T07:01:39.362Z,102419.09
2023-05-02T07:04:06.350Z,102422.44
2023-05-02T07:06:33.507Z,102425.38
2023-05-02T07:09:00.176Z,102423.50
2023-05-02T07:11:27.967Z,102427.94
2023-05-02T07:13:54.529Z,102428.38
2023-05-02T07:16:21.166Z,102428.13
2023-05-02T07:18:47.758Z,102441.63
2023-05-02T07:21:14.369Z,102439.31
2023-05-02T07:23:41.069Z,102449.84
2023-05-02T07:26:07.861Z,102444.16
2023-05-02T07:28:34.445Z,102441.00
2023-05-02T07:31:01.022Z,102450.25
2023-05-02T07:33:27.710Z,102455.31
2023-05-02T07:35:56.510Z,102461.44
2023-05-02T07:38:23.058Z,102464.63
2023-05-02T07:40:49.641Z,102473.88
2023-05-02T07:43:16.327Z,102475.81
2023-05-02T07:45:42.939Z,102478.56
2023-05-02T07:48:09.576Z,102485.28
2023-05-02T07:50:36.127Z,102484.44
2023-05-02T07:53:02.695Z,102485.72
2023-05-02T07:55:30.556Z,102484.44
2023-05-02T07:57:57.071Z,102487.00
2023-05-02T08:00:23.598Z,102489.09
2023-05-02T08:02:50.275Z,102486.34
2023-05-02T08:05:16.985Z,102494.38
2023-05-02T08:07:43.602Z,102496.69
2023-05-02T08:10:10.594Z,102494.78
2023-05-02T08:12:41.470Z,102494.78
2023-05-02T08:15:10.293Z,102490.75
2023-05-02T08:17:36.802Z,102498.34
2023-05-02T08:20:03.677Z,102503.41
2023-05-02T08:22:30.281Z,102503.59
2023-05-02T08:24:56.756Z,102503.81
2023-05-02T08:27:23.399Z,102509.72
2023-05-02T08:29:49.871Z,102507.59
2023-05-02T08:32:16.565Z,102520.03
2023-05-02T08:34:43.433Z,102514.75
2023-05-02T08:37:10.755Z,102513.03
2023-05-02T08:39:37.355Z,102515.34
2023-05-02T08:42:08.092Z,102522.91
2023-05-02T08:44:34.703Z,102520.59
2023-05-02T08:47:02.848Z,102519.50
2023-05-02T08:49:32.130Z,102521.84
2023-05-02T08:52:00.273Z,102531.53
2023-05-02T08:54:27.249Z,102525.16
2023-05-02T08:56:54.732Z,102526.41
2023-05-02T08:59:21.202Z,102527.66
2023-05-02T09:01:52.658Z,102526.41
2023-05-02T09:04:28.641Z,102540.72
2023-05-02T09:06:55.278Z,102543.47
2023-05-02T09:09:21.757Z,102546.63
2023-05-02T09:11:50.730Z,102557.16
2023-05-02T09:14:17.667Z,102563.94
2023-05-02T09:16:44.887Z,102561.84
2023-05-02T09:19:23.292Z,102558.91
2023-05-02T09:21:49.988Z,102569.22
2023-05-02T09:24:21.039Z,102574.53
2023-05-02T09:27:16.730Z,102577.44
2023-05-02T09:29:45.920Z,102579.38
2023-05-02T09:32:12.469Z,102579.13
2023-05-02T09:34:39.501Z,102582.97
2023-05-02T09:37:06.342Z,102582.97
2023-05-02T09:39:32.921Z,102572.19
2023-05-02T09:41:59.954Z,102590.09
2023-05-02T09:44:36.326Z,102595.84
2023-05-02T09:47:02.957Z,102587.38
2023-05-02T09:49:44.891Z,102595.56
2023-05-02T09:52:15.550Z,102589.66
2023-05-02T09:54:42.592Z,102606.34
2023-05-02T09:57:10.774Z,102599.81
2023-05-02T09:59:39.090Z,102600.69
2023-05-02T10:02:07.461Z,102607.47
2023-05-02T10:04:34.755Z,102608.72
2023-05-02T10:07:02.594Z,102615.47
2023-05-02T10:09:32.545Z,102612.47
2023-05-02T10:12:07.940Z,102613.31
2023-05-02T10:14:42.467Z,102606.94
2023-05-02T10:17:13.144Z,102617.03
2023-05-02T10:19:55.339Z,102617.03
2023-05-02T10:22:22.670Z,102615.75
2023-05-02T10:24:50.459Z,102615.06
2023-05-02T10:27:17.233Z,102616.94
2023-05-02T10:29:44.389Z,102619.03
2023-05-02T10:32:11.242Z,102617.38
2023-05-02T10:34:39.120Z,102629.66
2023-05-02T10:37:05.616Z,102622.47
2023-05-02T10:39:32.504Z,102615.31
2023-05-02T10:42:02.109Z,102619.09
2023-05-02T10:44:35.982Z,102615.22
2023-05-02T10:47:22.126Z,102618.38
2023-05-02T10:49:52.479Z,102610.59
2023-05-02T10:52:38.816Z,102616.50
2023-05-02T10:55:22.329Z,102607.78
2023-05-02T10:57:58.181Z,102621.31
2023-05-02T11:00:30.159Z,102627.47
2023-05-02T11:02:57.094Z,102628.78
2023-05-02T11:05:24.613Z,102626.28
2023-05-02T11:08:20.032Z,102626.63
2023-05-02T11:10:47.720Z,102632.56
2023-05-02T11:13:14.269Z,102622.38
2023-05-02T11:15:40.893Z,102643.19
2023-05-02T11:18:09.216Z,102634.72
2023-05-02T11:20:37.351Z,102638.75
2023-05-02T11:23:21.990Z,102643.84
2023-05-02T11:25:56.818Z,102636.72
2023-05-02T11:28:40.560Z,102639.00
2023-05-02T11:31:27.334Z,102639.81
2023-05-02T11:34:03.699Z,102641.31
2023-05-02T11:36:32.210Z,102636.25
2023-05-02T11:39:03.459Z,102633.66
2023-05-02T11:41:42.908Z,102628.91
2023-05-02T11:44:10.307Z,102628.06
2023-05-02T11:46:38.196Z,102625.94
2023-05-02T11:49:07.018Z,102628.97
2023-05-02T11:51:35.769Z,102632.63
2023-05-02T11:54:03.359Z,102637.66
2023-05-02T11:56:29.922Z,102633.25
2023-05-02T11:59:03.701Z,102641.06
2023-05-02T12:01:30.788Z,102639.41
2023-05-02T12:04:08.050Z,102652.53
2023-05-02T12:06:35.464Z,102644.91
2023-05-02T12:09:14.256Z,102652.78
2023-05-02T12:11:41.251Z,102645.75
2023-05-02T12:14:07.966Z,102653.38
2023-05-02T12:16:35.209Z,102656.69
2023-05-02T12:19:02.080Z,102650.03
2023-05-02T12:21:30.038Z,102657.16
2023-05-02T12:23:57.219Z,102665.28
2023-05-02T12:26:29.226Z,102665.50
2023-05-02T12:28:56.588Z,102653.09
2023-05-02T12:31:23.785Z,102657.47
2023-05-02T12:33:52.283Z,102662.53
2023-05-02T12:36:19.517Z,102672.94
2023-05-02T12:38:52.924Z,102673.47
2023-05-02T12:41:37.280Z,102672.63
2023-05-02T12:44:04.495Z,102670.72
2023-05-02T12:46:31.772Z,102683.59
2023-05-02T12:49:06.540Z,102687.22
2023-05-02T12:51:34.369Z,102686.41
2023-05-02T12:54:01.101Z,102695.44
2023-05-02T12:56:32.047Z,102697.28
2023-05-02T12:59:01.306Z,102696.78
2023-05-02T13:01:28.709Z,102693.34
2023-05-02T13:03:55.590Z,102692.84
2023-05-02T13:06:22.211Z,102678.91
2023-05-02T13:08:48.812Z,102676.59
2023-05-02T13:11:15.836Z,102687.31
2023-05-02T13:13:42.361Z,102681.81
2023-05-02T13:16:09.063Z,102681.72
2023-05-02T13:18:36.073Z,102686.09
2023-05-02T13:21:02.669Z,102683.19
2023-05-02T13:23:29.266Z,102683.50
2023-05-02T13:25:55.849Z,102689.47
2023-05-02T13:28:22.398Z,102694.53
2023-05-02T13:30:48.983Z,102682.09
2023-05-02T13:33:15.931Z,102684.56
2023-05-02T13:35:42.555Z,102686.09
2023-05-02T13:38:09.050Z,102677.00
2023-05-02T13:40:35.596Z,102683.91
2023-05-02T13:43:02.172Z,102686.09
2023-05-02T13:45:28.893Z,102680.75
2023-05-02T13:47:55.696Z,102681.41
2023-05-02T13:50:22.192Z,102684.44
2023-05-02T13:52:49.395Z,102686.38
2023-05-02T13:55:16.055Z,102682.06
2023-05-02T13:57:42.701Z,102692.84
2023-05-02T14:00:09.960Z,102697.88
2023-05-02T14:02:37.330Z,102695.03
2023-05-02T14:05:04.198Z,102686.88
2023-05-02T14:07:30.677Z,102683.88
2023-05-02T14:09:57.224Z,102684.94
2023-05-02T14:12:23.711Z,102689.41
2023-05-02T14:14:50.285Z,102688.03
2023-05-02T14:17:16.860Z,102683.81
2023-05-02T14:19:43.386Z,102684.44
2023-05-02T14:22:09.940Z,102680.34
2023-05-02T14:24:36.460Z,102683.03
2023-05-02T14:27:04.562Z,102678.34
2023-05-02T14:29:31.032Z,102681.94
2023-05-02T14:31:57.595Z,102677.94
2023-05-02T14:34:26.835Z,102678.69
2023-05-02T14:36:53.478Z,102681.28
2023-05-02T14:39:20.111Z,102681.66
2023-05-02T14:41:46.739Z,102681.66
2023-05-02T14:44:13.236Z,102688.16
2023-05-02T14:46:39.825Z,102683.84
2023-05-02T14:49:06.454Z,102681.56
2023-05-02T14:51:32.993Z,102678.84
2023-05-02T14:54:00.060Z,102680.16
2023-05-02T14:56:26.731Z,102683.13
2023-05-02T14:58:53.228Z,102683.00
2023-05-02T15:01:20.974Z,102675.50
2023-05-02T15:04:04.158Z,102674.28
2023-05-02T15:06:32.938Z,102676.91
2023-05-02T15:08:59.621Z,102679.31
2023-05-02T15:11:26.141Z,102679.22
2023-05-02T15:13:52.632Z,102679.31
2023-05-02T15:16:19.612Z,102676.41
2023-05-02T15:18:46.234Z,102663.56
2023-05-02T15:21:12.842Z,102684.13
2023-05-02T15:23:39.350Z,102680.63
2023-05-02T15:26:06.468Z,102676.44
2023-05-02T15:28:32.970Z,102686.50
2023-05-02T15:30:59.451Z,102679.78
2023-05-02T15:33:25.949Z,102690.19
2023-05-02T15:35:54.968Z,102696.25
2023-05-02T15:38:22.095Z,102694.22
2023-05-02T15:40:54.188Z,102695.34
2023-05-02T15:43:20.825Z,102689.31
2023-05-02T15:45:51.268Z,102702.47
2023-05-02T15:48:17.771Z,102696.03
2023-05-02T15:50:44.286Z,102686.47
2023-05-02T15:53:11.065Z,102687.78
2023-05-02T15:55:37.803Z,102696.00
2023-05-02T15:58:04.273Z,102693.91
2023-05-02T16:00:30.865Z,102690.47
2023-05-02T16:02:57.481Z,102693.81
2023-05-02T16:05:23.951Z,102689.44
2023-05-02T16:07:51.000Z,102704.81
2023-05-02T16:10:17.563Z,102709.97
2023-05-02T16:12:44.118Z,102708.75
2023-05-02T16:15:10.790Z,102711.72
2023-05-02T16:17:37.573Z,102714.56
2023-05-02T16:20:05.766Z,102718.56
2023-05-02T16:22:32.445Z,102715.88
2023-05-02T16:24:59.039Z,102703.94
2023-05-02T16:27:25.664Z,102697.22
2023-05-02T16:29:52.369Z,102694.00
2023-05-02T16:32:19.031Z,102695.69
2023-05-02T16:34:45.593Z,102709.47
2023-05-02T16:37:12.143Z,102709.56
2023-05-02T16:39:39.906Z,102713.69
2023-05-02T16:42:06.391Z,102708.81
2023-05-02T16:44:32.898Z,102701.56
2023-05-02T16:46:59.449Z,102709.38
2023-05-02T16:49:26.018Z,102714.06
2023-05-02T16:51:54.710Z,102719.28
2023-05-02T16:54:23.844Z,102721.50
2023-05-02T16:56:50.700Z,102714.03
2023-05-02T16:59:17.233Z,102712.91
2023-05-02T17:01:43.713Z,102717.88
2023-05-02T17:04:10.309Z,102713.81
2023-05-02T17:06:36.940Z,102714.59
2023-05-02T17:09:04.052Z,102713.41
2023-05-02T17:11:30.586Z,102718.66
2023-05-02T17:13:57.169Z,102725.28
2023-05-02T17:16:23.878Z,102721.69
2023-05-02T17:18:50.408Z,102728.84
2023-05-02T17:21:16.927Z,102730.81
2023-05-02T17:23:43.473Z,102733.34
2023-05-02T17:26:14.939Z,102736.88
2023-05-02T17:28:41.880Z,102731.13
2023-05-02T17:31:08.401Z,102724.09
2023-05-02T17:33:35.344Z,102731.44
2023-05-02T17:36:01.942Z,102723.88
2023-05-02T17:38:28.577Z,102725.47
2023-05-02T17:40:55.158Z,102728.44
2023-05-02T17:43:21.689Z,102715.28
2023-05-02T17:45:48.185Z,102722.28
2023-05-02T17:48:14.741Z,102723.78
2023-05-02T17:50:41.417Z,102725.31
2023-05-02T17:53:08.163Z,102735.47
2023-05-02T17:55:38.022Z,102732.75
2023-05-02T17:58:04.722Z,102739.44
2023-05-02T18:00:31.310Z,102737.34
2023-05-02T18:02:58.223Z,102742.66
2023-05-02T18:05:27.973Z,102741.16
2023-05-02T18:07:55.613Z,102755.38
2023-05-02T18:10:22.144Z,102763.34
2023-05-02T18:12:48.791Z,102753.97
2023-05-02T18:15:15.293Z,102746.91
2023-05-02T18:17:41.865Z,102754.13
2023-05-02T18:20:09.901Z,102749.94
2023-05-02T18:22:36.846Z,102748.63
2023-05-02T18:25:04.432Z,102745.25
2023-05-02T18:27:31.150Z,102747.78
2023-05-02T18:29:57.846Z,102756.56
2023-05-02T18:32:25.805Z,102751.63
2023-05-02T18:34:52.428Z,102759.69
2023-05-02T18:37:19.982Z,102762.44
2023-05-02T18:39:46.484Z,102753.44
2023-05-02T18:42:13.828Z,102756.69
2023-05-02T18:44:40.383Z,102763.44
2023-05-02T18:47:07.018Z,102760.69
2023-05-02T18:49:33.591Z,102762.94
2023-05-02T18:52:00.117Z,102764.13
2023-05-02T18:54:27.924Z,102773.03
2023-05-02T18:56:54.505Z,102776.88
2023-05-02T18:59:21.137Z,102780.44
2023-05-02T19:01:50.513Z,102788.59
2023-05-02T19:04:17.313Z,102789.53
2023-05-02T19:06:43.964Z,102791.22
2023-05-02T19:09:13.318Z,102780.63
2023-05-02T19:11:40.320Z,102783.50
2023-05-02T19:14:06.884Z,102785.63
2023-05-02T19:16:34.958Z,102798.78
2023-05-02T19:19:02.064Z,102798.94
2023-05-02T19:21:28.597Z,102797.09
2023-05-02T19:23:56.625Z,102796.34
2023-05-02T19:26:23.584Z,102797.44
2023-05-02T19:28:50.174Z,102791.47
2023-05-02T19:31:20.599Z,102805.59
2023-05-02T19:33:51.768Z,102805.25
2023-05-02T19:36:20.301Z,102803.81
2023-05-02T19:38:52.065Z,102808.09
2023-05-02T19:41:18.617Z,102800.81
2023-05-02T19:43:45.321Z,102797.44
2023-05-02T19:46:11.959Z,102811.53
2023-05-02T19:48:38.474Z,102808.22
2023-05-02T19:51:05.018Z,102801.13
2023-05-02T19:53:32.552Z,102808.91
2023-05-02T19:56:01.825Z,102812.56
2023-05-02T19:58:28.721Z,102816.84
2023-05-02T20:00:55.820Z,102831.94
2023-05-02T20:03:22.789Z,102826.81
2023-05-02T20:05:49.969Z,102831.00
2023-05-02T20:08:17.280Z,102828.50
2023-05-02T20:10:44.284Z,102832.38
2023-05-02T20:13:11.118Z,102834.50
2023-05-02T20:15:38.165Z,102843.00
2023-05-02T20:18:04.924Z,102843.44
2023-05-02T20:20:31.519Z,102840.97
2023-05-02T20:22:59.191Z,102847.19
2023-05-02T20:25:25.848Z,102846.81
2023-05-02T20:27:52.839Z,102855.47
2023-05-02T20:30:19.722Z,102856.38
2023-05-02T20:32:46.291Z,102845.41
2023-05-02T20:35:12.870Z,102851.75
2023-05-02T20:37:39.474Z,102857.38
2023-05-02T20:40:09.843Z,102850.84
2023-05-02T20:42:38.941Z,102857.84
2023-05-02T20:45:08.702Z,102853.84
2023-05-02T20:47:35.320Z,102864.03
2023-05-02T20:50:02.155Z,102858.38
2023-05-02T20:52:29.161Z,102862.78
2023-05-02T20:54:56.276Z,102868.16
2023-05-02T20:57:24.282Z,102879.59
2023-05-02T20:59:51.076Z,102866.13
2023-05-02T21:02:17.688Z,102869.66
2023-05-02T21:04:44.215Z,102870.97
2023-05-02T21:07:11.385Z,102877.09
2023-05-02T21:09:37.979Z,102873.72
2023-05-02T21:12:04.597Z,102871.00
2023-05-02T21:14:31.094Z,102872.50
2023-05-02T21:16:57.560Z,102869.97
2023-05-02T21:19:24.096Z,102871.25
2023-05-02T21:21:50.609Z,102878.66
2023-05-02T21:24:17.223Z,102871.31
2023-05-02T21:26:44.170Z,102878.91
2023-05-02T21:29:10.898Z,102876.19
2023-05-02T21:31:39.527Z,102872.38
2023-05-02T21:34:06.222Z,102878.13
2023-05-02T21:36:32.791Z,102881.72
2023-05-02T21:38:59.444Z,102876.00
2023-05-02T21:41:25.961Z,102868.81
2023-05-02T21:43:52.620Z,102868.84
2023-05-02T21:46:19.393Z,102864.84
2023-05-02T21:48:46.062Z,102868.84
2023-05-02T21:51:13.982Z,102876.06
2023-05-02T21:53:41.319Z,102872.47
2023-05-02T21:56:08.504Z,102867.19
2023-05-02T21:58:35.039Z,102875.88
2023-05-02T22:01:01.638Z,102875.03
2023-05-02T22:03:28.199Z,102865.50
2023-05-02T22:05:57.423Z,102870.16
2023-05-02T22:08:24.483Z,102868.47
2023-05-02T22:10:51.164Z,102867.81
2023-05-02T22:13:18.154Z,102866.97
2023-05-02T22:15:48.125Z,102866.34
2023-05-02T22:18:16.648Z,102869.28
2023-05-02T22:20:44.568Z,102865.09
2023-05-02T22:23:12.106Z,102868.88
2023-05-02T22:25:41.386Z,102853.69
2023-05-02T22:28:11.199Z,102853.69
2023-05-02T22:30:44.414Z,102858.94
2023-05-02T22:33:11.998Z,102862.09
2023-05-02T22:35:38.737Z,102853.84
2023-05-02T22:38:08.761Z,102855.97
2023-05-02T22:40:35.463Z,102843.09
2023-05-02T22:43:02.004Z,102843.50
2023-05-02T22:45:28.619Z,102847.31
2023-05-02T22:47:55.376Z,102854.47
2023-05-02T22:50:22.405Z,102858.06
2023-05-02T22:52:49.169Z,102858.28
2023-05-02T22:55:16.184Z,102861.00
2023-05-02T22:57:43.036Z,102858.03
2023-05-02T23:00:10.729Z,102858.69
2023-05-02T23:02:37.606Z,102847.47
2023-05-02T23:05:04.578Z,102855.09
2023-05-02T23:07:31.104Z,102857.19
2023-05-02T23:09:57.558Z,102857.59
2023-05-02T23:12:24.044Z,102863.50
2023-05-02T23:14:50.591Z,102860.72
2023-05-02T23:17:17.179Z,102866.19
2023-05-02T23:19:43.752Z,102863.63
2023-05-02T23:22:10.263Z,102856.06
2023-05-02T23:24:36.806Z,102863.63
2023-05-02T23:27:03.731Z,102862.16
2023-05-02T23:29:30.333Z,102861.72
2023-05-02T23:31:56.929Z,102871.19
2023-05-02T23:34:23.612Z,102871.59
2023-05-02T23:36:52.085Z,102873.66
2023-05-02T23:39:18.736Z,102878.72
2023-05-02T23:41:45.299Z,102876.19
2023-05-02T23:44:11.864Z,102869.34
2023-05-02T23:46:38.508Z,102873.59
2023-05-02T23:49:05.431Z,102874.00
2023-05-02T23:51:32.087Z,102868.91
2023-05-02T23:53:58.769Z,102872.06
2023-05-02T23:56:26.046Z,102870.13
2023-05-02T23:58:52.670Z,102877.50
